createdAt,value
2019-03-18T00:00:19.009Z,1001.28
2019-03-18T00:01:19.001Z,1001.33
2019-03-18T00:02:18.995Z,1001.26
2019-03-18T00:03:19.003Z,1001.26
2019-03-18T00:04:19.001Z,1001.25
2019-03-18T00:05:18.960Z,1001.29
2019-03-18T00:06:18.944Z,1001.32
2019-03-18T00:07:18.934Z,1001.28
2019-03-18T00:08:18.933Z,1001.30
2019-03-18T00:09:27.533Z,1001.38
2019-03-18T00:10:18.921Z,1001.29
2019-03-18T00:11:18.930Z,1001.32
2019-03-18T00:12:18.890Z,1001.30
2019-03-18T00:13:18.909Z,1001.33
2019-03-18T00:14:18.936Z,1001.36
2019-03-18T00:15:18.954Z,1001.35
2019-03-18T00:16:18.972Z,1001.32
2019-03-18T00:17:18.948Z,1001.39
2019-03-18T00:18:18.829Z,1001.34
2019-03-18T00:19:18.974Z,1001.37
2019-03-18T00:20:18.822Z,1001.30
2019-03-18T00:21:19.160Z,1001.37
2019-03-18T00:22:18.802Z,1001.37
2019-03-18T00:23:19.916Z,1001.31
2019-03-18T00:24:19.639Z,1001.31
2019-03-18T00:25:18.796Z,1001.32
2019-03-18T00:26:18.757Z,1001.27
2019-03-18T00:27:18.775Z,1001.28
2019-03-18T00:28:18.731Z,1001.30
2019-03-18T00:29:18.708Z,1001.32
2019-03-18T00:30:18.706Z,1001.25
2019-03-18T00:31:18.690Z,1001.34
2019-03-18T00:32:18.703Z,1001.33
2019-03-18T00:33:18.716Z,1001.38
2019-03-18T00:34:18.662Z,1001.28
2019-03-18T00:35:18.677Z,1001.30
2019-03-18T00:36:18.641Z,1001.39
2019-03-18T00:37:18.636Z,1001.31
2019-03-18T00:38:18.660Z,1001.35
2019-03-18T00:39:18.629Z,1001.34
2019-03-18T00:41:36.182Z,1001.32
2019-03-18T00:42:36.189Z,1001.33
2019-03-18T00:43:36.151Z,1001.33
2019-03-18T00:44:45.405Z,1001.37
2019-03-18T00:45:36.127Z,1001.34
2019-03-18T00:46:36.112Z,1001.41
2019-03-18T00:47:36.115Z,1001.41
2019-03-18T00:48:36.120Z,1001.44
2019-03-18T00:49:36.087Z,1001.41
2019-03-18T00:50:36.085Z,1001.42
2019-03-18T00:51:36.060Z,1001.47
2019-03-18T00:52:36.066Z,1001.50
2019-03-18T00:53:36.081Z,1001.50
2019-03-18T00:54:36.038Z,1001.57
2019-03-18T00:55:36.083Z,1001.54
2019-03-18T00:56:36.029Z,1001.56
2019-03-18T00:57:36.009Z,1001.59
2019-03-18T00:58:36.003Z,1001.64
2019-03-18T00:59:35.992Z,1001.64
2019-03-18T01:00:35.975Z,1001.66
2019-03-18T01:01:35.996Z,1001.74
2019-03-18T01:02:35.955Z,1001.69
2019-03-18T01:03:35.948Z,1001.76
2019-03-18T01:04:35.934Z,1001.80
2019-03-18T01:05:35.921Z,1001.81
2019-03-18T01:06:35.961Z,1001.81
2019-03-18T01:07:35.900Z,1001.80
2019-03-18T01:08:35.921Z,1001.76
2019-03-18T01:09:35.886Z,1001.78
2019-03-18T01:10:35.866Z,1001.79
2019-03-18T01:11:35.864Z,1001.80
2019-03-18T01:12:35.870Z,1001.85
2019-03-18T01:13:35.834Z,1001.78
2019-03-18T01:14:35.825Z,1001.79
2019-03-18T01:15:35.819Z,1001.80
2019-03-18T01:16:35.816Z,1001.74
2019-03-18T01:17:35.836Z,1001.83
2019-03-18T01:18:35.783Z,1001.86
2019-03-18T01:19:35.770Z,1001.87
2019-03-18T01:20:35.783Z,1001.76
2019-03-18T01:21:35.756Z,1001.79
2019-03-18T01:22:35.776Z,1001.86
2019-03-18T01:23:35.748Z,1001.82
2019-03-18T01:24:35.718Z,1001.91
2019-03-18T01:25:35.704Z,1001.92
2019-03-18T01:26:35.707Z,1001.90
2019-03-18T01:27:35.767Z,1001.93
2019-03-18T01:28:35.718Z,1001.95
2019-03-18T01:29:35.683Z,1001.99
2019-03-18T01:30:35.657Z,1001.90
2019-03-18T01:31:35.640Z,1001.89
2019-03-18T01:32:35.668Z,1001.88
2019-03-18T01:33:35.616Z,1001.85
2019-03-18T01:34:35.655Z,1001.88
2019-03-18T01:35:35.644Z,1001.88
2019-03-18T01:36:35.595Z,1001.93
2019-03-18T01:37:35.581Z,1001.85
2019-03-18T01:38:35.587Z,1001.94
2019-03-18T01:39:35.622Z,1001.94
2019-03-18T01:40:35.591Z,1001.88
2019-03-18T01:41:35.581Z,1001.95
2019-03-18T01:42:35.532Z,1001.93
2019-03-18T01:43:35.589Z,1001.95
2019-03-18T01:44:35.549Z,1001.85
2019-03-18T01:45:40.717Z,1001.86
2019-03-18T01:46:36.536Z,1001.77
2019-03-18T01:47:35.479Z,1001.83
2019-03-18T01:48:35.482Z,1001.80
2019-03-18T01:49:35.470Z,1001.76
2019-03-18T01:50:35.487Z,1001.76
2019-03-18T01:51:35.435Z,1001.76
2019-03-18T01:52:35.439Z,1001.71
2019-03-18T01:53:35.476Z,1001.73
2019-03-18T01:54:35.400Z,1001.72
2019-03-18T01:55:35.398Z,1001.70
2019-03-18T01:56:35.420Z,1001.68
2019-03-18T01:57:35.394Z,1001.68
2019-03-18T01:58:36.391Z,1001.70
2019-03-18T01:59:36.331Z,1001.67
2019-03-18T02:00:35.500Z,1001.69
2019-03-18T02:01:35.330Z,1001.64
2019-03-18T02:02:35.317Z,1001.67
2019-03-18T02:03:35.308Z,1001.69
2019-03-18T02:04:35.296Z,1001.84
2019-03-18T02:05:35.295Z,1001.65
2019-03-18T02:06:35.302Z,1001.70
2019-03-18T02:07:35.830Z,1001.65
2019-03-18T02:08:35.275Z,1001.71
2019-03-18T02:09:35.280Z,1001.70
2019-03-18T02:10:35.955Z,1001.72
2019-03-18T02:11:35.314Z,1001.77
2019-03-18T02:12:36.016Z,1001.74
2019-03-18T02:13:36.000Z,1001.82
2019-03-18T02:14:35.338Z,1001.72
2019-03-18T02:15:36.030Z,1001.75
2019-03-18T02:16:35.410Z,1001.73
2019-03-18T02:17:35.939Z,1001.76
2019-03-18T02:18:35.876Z,1001.71
2019-03-18T02:19:35.146Z,1001.77
2019-03-18T02:20:35.194Z,1001.72
2019-03-18T02:21:35.124Z,1001.69
2019-03-18T02:22:35.138Z,1001.75
2019-03-18T02:23:35.166Z,1001.73
2019-03-18T02:24:35.096Z,1001.75
2019-03-18T02:25:35.086Z,1001.82
2019-03-18T02:26:35.084Z,1001.74
2019-03-18T02:27:35.090Z,1001.74
2019-03-18T02:28:35.109Z,1001.89
2019-03-18T02:29:35.050Z,1001.74
2019-03-18T02:30:35.026Z,1001.66
2019-03-18T02:31:35.031Z,1001.75
2019-03-18T02:32:35.018Z,1001.72
2019-03-18T02:33:35.051Z,1001.71
2019-03-18T02:34:35.008Z,1001.72
2019-03-18T02:35:34.968Z,1001.73
2019-03-18T02:36:34.965Z,1001.78
2019-03-18T02:37:34.967Z,1001.69
2019-03-18T02:38:35.836Z,1001.74
2019-03-18T02:39:34.964Z,1001.71
2019-03-18T02:40:34.924Z,1001.74
2019-03-18T02:41:34.908Z,1001.72
2019-03-18T02:42:34.904Z,1001.70
2019-03-18T02:43:34.893Z,1001.71
2019-03-18T02:44:34.914Z,1001.71
2019-03-18T02:45:34.892Z,1001.70
2019-03-18T02:46:34.850Z,1001.71
2019-03-18T02:47:34.852Z,1001.73
2019-03-18T02:48:34.823Z,1001.74
2019-03-18T02:49:34.826Z,1001.73
2019-03-18T02:50:34.843Z,1001.79
2019-03-18T02:51:34.825Z,1001.74
2019-03-18T02:52:34.832Z,1001.78
2019-03-18T02:53:34.817Z,1001.79
2019-03-18T02:54:34.771Z,1001.69
2019-03-18T02:55:34.800Z,1001.76
2019-03-18T02:56:34.778Z,1001.74
2019-03-18T02:57:34.738Z,1001.73
2019-03-18T02:58:34.768Z,1001.73
2019-03-18T02:59:34.712Z,1001.68
2019-03-18T03:00:34.725Z,1001.69
2019-03-18T03:01:34.703Z,1001.84
2019-03-18T03:02:34.703Z,1001.72
2019-03-18T03:03:37.000Z,1001.77
2019-03-18T03:04:34.660Z,1001.75
2019-03-18T03:05:34.680Z,1001.76
2019-03-18T03:06:34.711Z,1001.80
2019-03-18T03:07:34.767Z,1001.72
2019-03-18T03:08:34.754Z,1001.70
2019-03-18T03:09:34.641Z,1001.73
2019-03-18T03:10:34.707Z,1001.78
2019-03-18T03:11:34.814Z,1001.76
2019-03-18T03:12:34.680Z,1001.72
2019-03-18T03:13:34.578Z,1001.65
2019-03-18T03:14:34.553Z,1001.76
2019-03-18T03:15:34.548Z,1001.72
2019-03-18T03:16:34.598Z,1001.68
2019-03-18T03:17:34.551Z,1001.69
2019-03-18T03:18:34.569Z,1001.70
2019-03-18T03:19:34.521Z,1001.76
2019-03-18T03:20:34.501Z,1001.83
2019-03-18T03:21:34.530Z,1001.77
2019-03-18T03:22:34.480Z,1001.80
2019-03-18T03:23:34.464Z,1001.81
2019-03-18T03:24:34.449Z,1001.86
2019-03-18T03:25:34.442Z,1001.83
2019-03-18T03:26:34.441Z,1001.77
2019-03-18T03:27:34.473Z,1001.90
2019-03-18T03:28:34.403Z,1001.89
2019-03-18T03:29:34.470Z,1001.88
2019-03-18T03:30:34.520Z,1001.96
2019-03-18T03:31:34.388Z,1001.96
2019-03-18T03:32:34.408Z,1001.94
2019-03-18T03:33:34.377Z,1001.87
2019-03-18T03:34:34.351Z,1001.92
2019-03-18T03:35:34.337Z,1002.08
2019-03-18T03:36:34.324Z,1001.96
2019-03-18T03:37:34.355Z,1001.98
2019-03-18T03:38:34.310Z,1001.97
2019-03-18T03:39:34.289Z,1002.01
2019-03-18T03:40:34.282Z,1002.01
2019-03-18T03:41:34.308Z,1002.03
2019-03-18T03:42:34.276Z,1001.89
2019-03-18T03:43:34.840Z,1001.93
2019-03-18T03:44:34.242Z,1001.91
2019-03-18T03:45:34.228Z,1001.99
2019-03-18T03:46:43.055Z,1001.88
2019-03-18T03:47:35.214Z,1001.93
2019-03-18T03:48:34.232Z,1001.90
2019-03-18T03:49:34.182Z,1001.92
2019-03-18T03:50:34.178Z,1002.01
2019-03-18T03:51:34.170Z,1002.02
2019-03-18T03:52:34.165Z,1002.05
2019-03-18T03:53:34.147Z,1002.04
2019-03-18T03:54:34.161Z,1002.01
2019-03-18T03:55:34.116Z,1001.99
2019-03-18T03:56:34.117Z,1002.04
2019-03-18T03:57:34.107Z,1001.98
2019-03-18T03:58:34.098Z,1002.02
2019-03-18T03:59:34.118Z,1001.98
2019-03-18T04:00:34.068Z,1002.03
2019-03-18T04:01:34.099Z,1001.98
2019-03-18T04:02:34.053Z,1002.00
2019-03-18T04:03:38.767Z,1001.95
2019-03-18T04:04:35.052Z,1001.98
2019-03-18T04:05:34.046Z,1002.04
2019-03-18T04:06:34.027Z,1002.10
2019-03-18T04:07:34.029Z,1002.01
2019-03-18T04:08:34.006Z,1002.08
2019-03-18T04:09:33.979Z,1001.96
2019-03-18T04:10:33.977Z,1001.97
2019-03-18T04:11:33.976Z,1002.02
2019-03-18T04:12:33.951Z,1001.94
2019-03-18T04:13:33.929Z,1002.04
2019-03-18T04:14:33.941Z,1002.02
2019-03-18T04:15:33.918Z,1002.04
2019-03-18T04:16:33.921Z,1002.03
2019-03-18T04:17:33.940Z,1002.06
2019-03-18T04:18:33.882Z,1002.06
2019-03-18T04:19:33.897Z,1002.06
2019-03-18T04:20:33.857Z,1002.04
2019-03-18T04:21:33.843Z,1002.15
2019-03-18T04:22:33.847Z,1002.14
2019-03-18T04:23:33.843Z,1002.19
2019-03-18T04:24:33.819Z,1002.24
2019-03-18T04:25:33.819Z,1002.19
2019-03-18T04:26:33.814Z,1002.16
2019-03-18T04:27:33.795Z,1002.33
2019-03-18T04:28:33.805Z,1002.26
2019-03-18T04:29:33.775Z,1002.27
2019-03-18T04:30:33.770Z,1002.29
2019-03-18T04:31:33.741Z,1002.28
2019-03-18T04:32:33.821Z,1002.24
2019-03-18T04:33:33.804Z,1002.34
2019-03-18T04:34:33.747Z,1002.28
2019-03-18T04:35:33.754Z,1002.28
2019-03-18T04:36:33.724Z,1002.36
2019-03-18T04:37:33.675Z,1002.35
2019-03-18T04:38:33.684Z,1002.39
2019-03-18T04:39:33.669Z,1002.38
2019-03-18T04:40:33.698Z,1002.46
2019-03-18T04:41:33.640Z,1002.51
2019-03-18T04:42:33.626Z,1002.50
2019-03-18T04:43:33.667Z,1002.47
2019-03-18T04:44:33.608Z,1002.50
2019-03-18T04:45:33.630Z,1002.53
2019-03-18T04:46:33.584Z,1002.46
2019-03-18T04:47:33.577Z,1002.45
2019-03-18T04:48:33.554Z,1002.45
2019-03-18T04:49:33.556Z,1002.42
2019-03-18T04:50:33.588Z,1002.50
2019-03-18T04:51:33.539Z,1002.48
2019-03-18T04:52:33.559Z,1002.53
2019-03-18T04:53:33.531Z,1002.62
2019-03-18T04:54:33.493Z,1002.37
2019-03-18T04:55:33.493Z,1002.46
2019-03-18T04:56:33.519Z,1002.52
2019-03-18T04:57:33.461Z,1002.50
2019-03-18T04:58:33.464Z,1002.48
2019-03-18T04:59:33.454Z,1002.55
2019-03-18T05:00:33.432Z,1002.46
2019-03-18T05:01:33.437Z,1002.57
2019-03-18T05:02:33.432Z,1002.46
2019-03-18T05:03:33.398Z,1002.46
2019-03-18T05:04:33.403Z,1002.56
2019-03-18T05:05:33.390Z,1002.54
2019-03-18T05:06:33.389Z,1002.66
2019-03-18T05:07:33.382Z,1002.55
2019-03-18T05:08:33.388Z,1002.60
2019-03-18T05:09:33.365Z,1002.67
2019-03-18T05:10:33.368Z,1002.57
2019-03-18T05:11:33.331Z,1002.55
2019-03-18T05:12:33.342Z,1002.61
2019-03-18T05:13:33.337Z,1002.62
2019-03-18T05:14:33.278Z,1002.55
2019-03-18T05:15:33.278Z,1002.58
2019-03-18T05:16:33.302Z,1002.70
2019-03-18T05:17:33.274Z,1002.65
2019-03-18T05:18:33.243Z,1002.50
2019-03-18T05:19:33.245Z,1002.61
2019-03-18T05:20:33.228Z,1002.57
2019-03-18T05:21:33.207Z,1002.61
2019-03-18T05:22:33.233Z,1002.60
2019-03-18T05:23:33.217Z,1002.66
2019-03-18T05:24:33.187Z,1002.58
2019-03-18T05:25:33.189Z,1002.70
2019-03-18T05:26:33.154Z,1002.82
2019-03-18T05:27:33.855Z,1002.82
2019-03-18T05:28:33.155Z,1002.75
2019-03-18T05:29:33.127Z,1002.79
2019-03-18T05:30:33.144Z,1002.75
2019-03-18T05:31:33.151Z,1002.70
2019-03-18T05:32:33.124Z,1002.72
2019-03-18T05:33:33.152Z,1002.77
2019-03-18T05:34:33.196Z,1002.74
2019-03-18T05:35:33.057Z,1002.81
2019-03-18T05:36:33.052Z,1002.91
2019-03-18T05:37:33.055Z,1002.80
2019-03-18T05:38:33.036Z,1002.86
2019-03-18T05:39:33.060Z,1002.84
2019-03-18T05:40:33.003Z,1002.85
2019-03-18T05:41:32.996Z,1002.88
2019-03-18T05:42:32.986Z,1002.96
2019-03-18T05:43:32.985Z,1002.95
2019-03-18T05:44:32.999Z,1003.02
2019-03-18T05:45:33.019Z,1003.01
2019-03-18T05:46:32.942Z,1003.03
2019-03-18T05:47:39.074Z,1003.01
2019-03-18T05:48:34.449Z,1002.93
2019-03-18T05:49:32.982Z,1003.10
2019-03-18T05:50:32.916Z,1003.10
2019-03-18T05:51:32.922Z,1003.05
2019-03-18T05:52:32.889Z,1003.00
2019-03-18T05:53:32.893Z,1003.11
2019-03-18T05:54:32.870Z,1003.07
2019-03-18T05:55:32.904Z,1003.12
2019-03-18T05:56:32.850Z,1003.11
2019-03-18T05:57:33.419Z,1003.15
2019-03-18T05:58:32.821Z,1003.13
2019-03-18T05:59:34.498Z,1003.13
2019-03-18T06:00:32.926Z,1003.10
2019-03-18T06:01:32.824Z,1003.08
2019-03-18T06:02:35.365Z,1003.08
2019-03-18T06:03:32.773Z,1003.19
2019-03-18T06:04:32.803Z,1003.19
2019-03-18T06:05:32.783Z,1003.11
2019-03-18T06:06:32.746Z,1003.13
2019-03-18T06:07:32.714Z,1003.15
2019-03-18T06:08:32.738Z,1003.06
2019-03-18T06:09:41.304Z,1003.08
2019-03-18T06:10:32.680Z,1003.04
2019-03-18T06:11:32.669Z,1003.08
2019-03-18T06:12:32.666Z,1003.10
2019-03-18T06:13:32.650Z,1003.27
2019-03-18T06:14:32.653Z,1003.06
2019-03-18T06:15:32.656Z,1003.06
2019-03-18T06:16:32.635Z,1003.12
2019-03-18T06:17:32.610Z,1003.12
2019-03-18T06:18:32.592Z,1003.02
2019-03-18T06:19:32.582Z,1003.09
2019-03-18T06:20:32.648Z,1003.17
2019-03-18T06:21:32.581Z,1003.22
2019-03-18T06:22:32.574Z,1003.14
2019-03-18T06:23:32.564Z,1003.17
2019-03-18T06:24:32.535Z,1003.23
2019-03-18T06:25:32.544Z,1003.33
2019-03-18T06:26:32.541Z,1003.24
2019-03-18T06:27:41.966Z,1003.32
2019-03-18T06:28:42.006Z,1003.29
2019-03-18T06:29:41.146Z,1003.43
2019-03-18T06:30:32.465Z,1003.42
2019-03-18T06:31:32.473Z,1003.36
2019-03-18T06:32:32.447Z,1003.27
2019-03-18T06:33:32.443Z,1003.40
2019-03-18T06:34:32.428Z,1003.41
2019-03-18T06:35:32.411Z,1003.35
2019-03-18T06:36:32.427Z,1003.37
2019-03-18T06:37:32.397Z,1003.43
2019-03-18T06:38:32.456Z,1003.48
2019-03-18T06:39:32.373Z,1003.46
2019-03-18T06:40:32.366Z,1003.48
2019-03-18T06:41:32.394Z,1003.56
2019-03-18T06:42:32.351Z,1003.56
2019-03-18T06:43:32.327Z,1003.52
2019-03-18T06:44:32.321Z,1003.64
2019-03-18T06:45:32.320Z,1003.59
2019-03-18T06:46:32.300Z,1003.55
2019-03-18T06:47:32.319Z,1003.50
2019-03-18T06:48:32.276Z,1003.56
2019-03-18T06:49:32.291Z,1003.65
2019-03-18T06:50:32.987Z,1003.65
2019-03-18T06:51:32.249Z,1003.69
2019-03-18T06:52:32.239Z,1003.66
2019-03-18T06:53:32.249Z,1003.66
2019-03-18T06:54:32.243Z,1003.65
2019-03-18T06:55:32.201Z,1003.72
2019-03-18T06:56:32.197Z,1003.69
2019-03-18T06:57:32.184Z,1003.66
2019-03-18T06:58:32.205Z,1003.73
2019-03-18T06:59:32.168Z,1003.64
2019-03-18T07:00:32.165Z,1003.74
2019-03-18T07:01:32.170Z,1003.67
2019-03-18T07:02:32.129Z,1003.72
2019-03-18T07:03:32.120Z,1003.68
2019-03-18T07:04:32.140Z,1003.72
2019-03-18T07:05:32.109Z,1003.75
2019-03-18T07:06:32.117Z,1003.83
2019-03-18T07:07:32.088Z,1003.88
2019-03-18T07:08:32.065Z,1003.77
2019-03-18T07:09:32.055Z,1003.80
2019-03-18T07:10:32.072Z,1003.85
2019-03-18T07:11:32.122Z,1003.87
2019-03-18T07:12:32.033Z,1003.83
2019-03-18T07:13:32.031Z,1003.70
2019-03-18T07:14:32.009Z,1003.72
2019-03-18T07:15:32.014Z,1003.70
2019-03-18T07:16:31.991Z,1003.84
2019-03-18T07:17:31.979Z,1003.79
2019-03-18T07:18:32.005Z,1003.85
2019-03-18T07:19:31.956Z,1003.74
2019-03-18T07:20:31.939Z,1003.73
2019-03-18T07:21:31.931Z,1003.83
2019-03-18T07:22:31.927Z,1003.90
2019-03-18T07:23:31.915Z,1003.89
2019-03-18T07:24:31.921Z,1003.91
2019-03-18T07:25:31.894Z,1003.92
2019-03-18T07:26:31.873Z,1003.94
2019-03-18T07:27:31.868Z,1003.87
2019-03-18T07:28:31.855Z,1003.95
2019-03-18T07:29:31.870Z,1003.97
2019-03-18T07:30:31.862Z,1003.96
2019-03-18T07:31:31.825Z,1003.91
2019-03-18T07:32:31.814Z,1004.00
2019-03-18T07:33:31.806Z,1003.87
2019-03-18T07:34:31.789Z,1003.84
2019-03-18T07:35:31.804Z,1003.88
2019-03-18T07:36:31.777Z,1003.90
2019-03-18T07:37:31.770Z,1003.88
2019-03-18T07:38:31.745Z,1003.95
2019-03-18T07:39:31.743Z,1003.93
2019-03-18T07:40:31.761Z,1003.90
2019-03-18T07:41:31.720Z,1003.90
2019-03-18T07:42:31.717Z,1003.85
2019-03-18T07:43:31.711Z,1003.86
2019-03-18T07:44:31.693Z,1003.93
2019-03-18T07:45:31.710Z,1003.81
2019-03-18T07:46:31.703Z,1003.95
2019-03-18T07:47:31.655Z,1003.91
2019-03-18T07:48:31.773Z,1003.86
2019-03-18T07:49:31.641Z,1003.90
2019-03-18T07:50:31.632Z,1003.91
2019-03-18T07:51:31.652Z,1004.04
2019-03-18T07:52:31.606Z,1004.08
2019-03-18T07:53:31.606Z,1003.97
2019-03-18T07:54:33.133Z,1003.94
2019-03-18T07:55:31.601Z,1003.94
2019-03-18T07:56:31.597Z,1003.99
2019-03-18T07:57:32.757Z,1003.99
2019-03-18T07:58:31.549Z,1004.12
2019-03-18T07:59:31.537Z,1003.95
2019-03-18T08:00:31.528Z,1003.89
2019-03-18T08:01:31.536Z,1004.07
2019-03-18T08:02:31.518Z,1004.00
2019-03-18T08:03:31.498Z,1003.97
2019-03-18T08:04:37.471Z,1003.97
2019-03-18T08:05:32.488Z,1004.22
2019-03-18T08:06:31.502Z,1003.99
2019-03-18T08:07:31.462Z,1004.17
2019-03-18T08:08:31.523Z,1003.95
2019-03-18T08:09:31.438Z,1003.95
2019-03-18T08:10:31.424Z,1003.99
2019-03-18T08:11:31.437Z,1003.81
2019-03-18T08:12:31.447Z,1004.13
2019-03-18T08:13:31.390Z,1003.96
2019-03-18T08:14:31.383Z,1004.03
2019-03-18T08:15:31.389Z,1004.06
2019-03-18T08:16:31.402Z,1004.05
2019-03-18T08:17:31.354Z,1004.06
2019-03-18T08:18:42.664Z,1004.19
2019-03-18T08:19:32.320Z,1004.12
2019-03-18T08:20:31.310Z,1004.31
2019-03-18T08:21:31.301Z,1004.16
2019-03-18T08:22:31.328Z,1004.17
2019-03-18T08:23:31.284Z,1004.20
2019-03-18T08:24:31.271Z,1004.20
2019-03-18T08:25:31.269Z,1004.21
2019-03-18T08:26:31.254Z,1004.32
2019-03-18T08:27:31.257Z,1004.17
2019-03-18T08:28:31.266Z,1004.13
2019-03-18T08:29:31.317Z,1004.23
2019-03-18T08:30:31.237Z,1004.28
2019-03-18T08:31:31.200Z,1004.30
2019-03-18T08:32:31.182Z,1004.28
2019-03-18T08:33:31.170Z,1004.40
2019-03-18T08:34:31.188Z,1004.31
2019-03-18T08:35:31.157Z,1004.30
2019-03-18T08:36:31.156Z,1004.23
2019-03-18T08:37:31.158Z,1004.21
2019-03-18T08:38:31.123Z,1004.36
2019-03-18T08:39:31.136Z,1004.49
2019-03-18T08:40:31.102Z,1004.33
2019-03-18T08:41:31.099Z,1004.51
2019-03-18T08:42:31.079Z,1004.31
2019-03-18T08:43:31.070Z,1004.39
2019-03-18T08:44:31.090Z,1004.30
2019-03-18T08:45:31.048Z,1004.43
2019-03-18T08:46:31.041Z,1004.40
2019-03-18T08:47:31.033Z,1004.41
2019-03-18T08:48:31.021Z,1004.46
2019-03-18T08:49:31.026Z,1004.43
2019-03-18T08:50:31.013Z,1004.50
2019-03-18T08:51:30.994Z,1004.35
2019-03-18T08:52:30.978Z,1004.44
2019-03-18T08:53:30.962Z,1004.45
2019-03-18T08:54:30.964Z,1004.80
2019-03-18T08:55:30.996Z,1004.63
2019-03-18T08:56:30.923Z,1004.58
2019-03-18T08:57:30.921Z,1004.51
2019-03-18T08:58:30.909Z,1004.59
2019-03-18T08:59:30.900Z,1004.48
2019-03-18T09:00:30.913Z,1004.67
2019-03-18T09:01:30.888Z,1004.57
2019-03-18T09:02:30.897Z,1004.59
2019-03-18T09:03:30.850Z,1004.52
2019-03-18T09:04:30.838Z,1004.58
2019-03-18T09:05:30.855Z,1004.59
2019-03-18T09:06:30.830Z,1004.61
2019-03-18T09:07:30.839Z,1004.55
2019-03-18T09:08:30.800Z,1004.63
2019-03-18T09:09:30.864Z,1004.69
2019-03-18T09:10:30.780Z,1004.58
2019-03-18T09:11:30.760Z,1004.55
2019-03-18T09:12:30.853Z,1004.53
2019-03-18T09:13:32.127Z,1004.58
2019-03-18T09:14:30.766Z,1004.54
2019-03-18T09:15:30.718Z,1004.59
2019-03-18T09:16:30.705Z,1004.58
2019-03-18T09:17:30.700Z,1004.67
2019-03-18T09:18:30.720Z,1004.58
2019-03-18T09:19:30.682Z,1004.64
2019-03-18T09:20:30.681Z,1004.57
2019-03-18T09:21:30.718Z,1004.62
2019-03-18T09:22:30.646Z,1004.62
2019-03-18T09:23:30.659Z,1004.64
2019-03-18T09:24:30.645Z,1004.73
2019-03-18T09:25:30.609Z,1004.84
2019-03-18T09:26:30.610Z,1004.75
2019-03-18T09:27:30.596Z,1004.55
2019-03-18T09:28:30.585Z,1004.65
2019-03-18T09:29:30.598Z,1004.58
2019-03-18T09:30:30.572Z,1004.65
2019-03-18T09:31:30.575Z,1004.59
2019-03-18T09:32:30.550Z,1004.72
2019-03-18T09:33:30.535Z,1004.88
2019-03-18T09:34:30.555Z,1004.71
2019-03-18T09:35:30.506Z,1004.67
2019-03-18T09:36:30.498Z,1004.62
2019-03-18T09:37:30.485Z,1004.70
2019-03-18T09:38:30.477Z,1004.87
2019-03-18T09:39:30.461Z,1005.06
2019-03-18T09:40:30.487Z,1005.03
2019-03-18T09:41:30.451Z,1004.80
2019-03-18T09:42:30.433Z,1005.01
2019-03-18T09:43:30.417Z,1004.65
2019-03-18T09:44:30.422Z,1004.72
2019-03-18T09:45:30.438Z,1004.67
2019-03-18T09:46:30.383Z,1004.67
2019-03-18T09:47:30.380Z,1004.78
2019-03-18T09:48:30.375Z,1004.85
2019-03-18T09:49:30.355Z,1004.81
2019-03-18T09:50:30.346Z,1004.78
2019-03-18T09:51:30.358Z,1004.83
2019-03-18T09:52:30.375Z,1005.06
2019-03-18T09:53:30.309Z,1004.88
2019-03-18T09:54:30.299Z,1004.75
2019-03-18T09:55:30.286Z,1004.92
2019-03-18T09:56:30.313Z,1005.01
2019-03-18T09:57:30.264Z,1005.06
2019-03-18T09:58:30.273Z,1005.12
2019-03-18T09:59:30.256Z,1004.97
2019-03-18T10:00:30.238Z,1004.93
2019-03-18T10:01:30.225Z,1004.93
2019-03-18T10:02:38.293Z,1004.99
2019-03-18T10:03:39.134Z,1004.89
2019-03-18T10:04:39.671Z,1004.89
2019-03-18T10:05:39.713Z,1004.94
2019-03-18T10:06:30.167Z,1004.98
2019-03-18T10:07:30.312Z,1004.94
2019-03-18T10:08:30.149Z,1004.99
2019-03-18T10:09:30.135Z,1004.98
2019-03-18T10:10:30.143Z,1004.97
2019-03-18T10:11:30.118Z,1005.05
2019-03-18T10:12:30.132Z,1005.07
2019-03-18T10:13:30.089Z,1004.94
2019-03-18T10:14:30.081Z,1005.06
2019-03-18T10:15:30.106Z,1005.07
2019-03-18T10:16:30.066Z,1005.23
2019-03-18T10:17:30.054Z,1005.29
2019-03-18T10:18:30.063Z,1005.14
2019-03-18T10:19:33.742Z,1005.12
2019-03-18T10:20:30.011Z,1005.05
2019-03-18T10:21:30.004Z,1005.33
2019-03-18T10:22:30.001Z,1005.21
2019-03-18T10:23:30.009Z,1005.26
2019-03-18T10:24:29.999Z,1005.27
2019-03-18T10:25:29.958Z,1005.30
2019-03-18T10:26:29.963Z,1005.36
2019-03-18T10:27:29.944Z,1005.19
2019-03-18T10:28:29.935Z,1005.31
2019-03-18T10:29:29.921Z,1005.21
2019-03-18T10:30:29.925Z,1005.23
2019-03-18T10:31:29.899Z,1005.32
2019-03-18T10:32:29.884Z,1005.24
2019-03-18T10:33:29.871Z,1005.23
2019-03-18T10:34:29.904Z,1005.26
2019-03-18T10:35:29.861Z,1005.20
2019-03-18T10:36:29.872Z,1005.20
2019-03-18T10:37:29.838Z,1005.36
2019-03-18T10:38:29.823Z,1005.28
2019-03-18T10:39:29.818Z,1005.54
2019-03-18T10:40:29.841Z,1005.32
2019-03-18T10:41:29.801Z,1005.21
2019-03-18T10:42:29.775Z,1005.28
2019-03-18T10:43:29.775Z,1005.26
2019-03-18T10:44:29.758Z,1005.28
2019-03-18T10:45:29.742Z,1005.30
2019-03-18T10:46:29.781Z,1005.29
2019-03-18T10:47:29.729Z,1005.35
2019-03-18T10:48:29.716Z,1005.42
2019-03-18T10:49:29.715Z,1005.47
2019-03-18T10:50:29.693Z,1005.35
2019-03-18T10:51:31.942Z,1005.43
2019-03-18T10:52:29.703Z,1005.39
2019-03-18T10:53:29.701Z,1005.39
2019-03-18T10:54:31.156Z,1005.62
2019-03-18T10:55:29.645Z,1005.62
2019-03-18T10:56:29.659Z,1005.38
2019-03-18T10:57:29.619Z,1005.45
2019-03-18T10:58:29.613Z,1005.68
2019-03-18T10:59:29.601Z,1005.46
2019-03-18T11:00:29.596Z,1005.38
2019-03-18T11:01:29.594Z,1005.39
2019-03-18T11:02:29.586Z,1005.58
2019-03-18T11:03:29.568Z,1005.58
2019-03-18T11:04:29.541Z,1005.47
2019-03-18T11:05:29.531Z,1005.48
2019-03-18T11:06:29.527Z,1005.64
2019-03-18T11:07:29.545Z,1005.62
2019-03-18T11:08:29.503Z,1005.59
2019-03-18T11:09:29.495Z,1005.59
2019-03-18T11:10:29.483Z,1005.58
2019-03-18T11:11:29.466Z,1005.60
2019-03-18T11:12:29.462Z,1005.66
2019-03-18T11:13:29.480Z,1005.63
2019-03-18T11:14:29.436Z,1005.55
2019-03-18T11:15:29.458Z,1005.64
2019-03-18T11:16:31.407Z,1005.59
2019-03-18T11:17:29.436Z,1005.62
2019-03-18T11:18:29.425Z,1005.58
2019-03-18T11:19:29.388Z,1005.79
2019-03-18T11:20:29.377Z,1005.74
2019-03-18T11:21:29.369Z,1005.80
2019-03-18T11:22:29.353Z,1005.79
2019-03-18T11:23:29.359Z,1005.75
2019-03-18T11:24:29.329Z,1005.69
2019-03-18T11:25:29.320Z,1005.81
2019-03-18T11:26:29.320Z,1005.76
2019-03-18T11:27:29.303Z,1005.90
2019-03-18T11:28:29.307Z,1005.78
2019-03-18T11:29:29.276Z,1005.78
2019-03-18T11:30:29.271Z,1005.83
2019-03-18T11:31:29.265Z,1005.78
2019-03-18T11:32:29.249Z,1005.79
2019-03-18T11:33:29.268Z,1005.75
2019-03-18T11:34:29.227Z,1005.73
2019-03-18T11:35:29.215Z,1005.69
2019-03-18T11:36:31.559Z,1005.90
2019-03-18T11:37:29.195Z,1005.66
2019-03-18T11:38:31.816Z,1005.69
2019-03-18T11:39:29.174Z,1005.81
2019-03-18T11:40:29.165Z,1005.74
2019-03-18T11:41:29.152Z,1005.74
2019-03-18T11:42:29.137Z,1005.70
2019-03-18T11:43:29.127Z,1005.73
2019-03-18T11:44:29.158Z,1005.69
2019-03-18T11:45:29.108Z,1005.65
2019-03-18T11:46:29.098Z,1005.66
2019-03-18T11:47:29.082Z,1005.61
2019-03-18T11:48:29.072Z,1005.59
2019-03-18T11:49:39.015Z,1005.60
2019-03-18T11:50:30.079Z,1005.54
2019-03-18T11:51:29.052Z,1005.61
2019-03-18T11:52:29.037Z,1005.61
2019-03-18T11:53:29.028Z,1005.56
2019-03-18T11:54:29.112Z,1005.56
2019-03-18T11:55:29.019Z,1005.52
2019-03-18T11:56:28.989Z,1005.54
2019-03-18T11:57:28.977Z,1005.54
2019-03-18T11:58:28.977Z,1005.49
2019-03-18T11:59:28.961Z,1005.46
2019-03-18T12:00:28.978Z,1005.51
2019-03-18T12:01:28.939Z,1005.55
2019-03-18T12:02:28.926Z,1005.55
2019-03-18T12:03:28.917Z,1005.51
2019-03-18T12:04:28.916Z,1005.42
2019-03-18T12:05:28.915Z,1005.42
2019-03-18T12:06:28.906Z,1005.51